WEATHER DATA

YESTERDAY
Time Temp. Dewp. Hum. Bar. 1h Prec. 24h Prec.
00:00 8.1 6.1 87 1000 0.0000 0.0000
00:11 8.1 6.1 87 1000 0.0000 0.0000
01:16 7.8 5.8 87 999.9 0.0000 0.0000
01:26 7.8 5.9 88 1000 0.0000 0.0000
01:36 7.9 6 88 1000 0.0000 0.0000
01:46 7.9 6 88 1000.2 0.0000 0.0000
01:57 8 6.1 88 1000.2 0.0000 0.0000
02:07 8 6.1 88 1000.3 0.0000 0.0000
02:16 8 6.1 88 1000.3 0.0000 0.0000
02:26 8 6.1 88 1000.4 0.0000 0.0000
02:37 8 6.1 88 1000.4 0.0000 0.0000
02:47 8.1 6.4 89 1000.4 0.0000 0.0000
02:56 8.3 6.6 89 1000.6 0.0000 0.0000
03:07 8.4 6.7 89 1000.6 0.0000 0.0000
03:17 8.5 6.8 89 1000.4 0.0000 0.0000
03:27 8.5 6.8 89 1000.3 0.0000 0.0000
03:37 8.5 6.6 88 1000.1 0.0000 0.0000
03:47 8.3 6.4 88 1000.3 0.0000 0.0000
03:57 8.2 6.3 88 1000.2 0.0000 0.0000
04:07 8.2 6.5 89 1000.3 0.0000 0.0000
04:18 8.1 6.4 89 1000.3 0.0000 0.0000
04:28 8.1 6.4 89 1000.5 0.0000 0.0000
04:37 8.1 6.4 89 1000.7 0.0000 0.0000
04:47 8.1 6.4 89 1000.6 0.0000 0.0000
04:58 8.1 6.4 89 1000.6 0.0000 0.0000
05:08 8.2 6.5 89 1000.6 0.0000 0.0000
05:18 8.1 6.4 89 1000.9 0.0000 0.0000
05:28 8.1 6.4 89 1001 0.0000 0.0000
05:38 8.2 6.5 89 1000.9 0.0000 0.0000
05:48 8.2 6.5 89 1001 0.0000 0.0000
05:58 8.2 6.5 89 1000.9 0.0000 0.0000
06:08 8.1 6.4 89 1001.1 0.0000 0.0000
06:18 8.1 6.4 89 1001.1 0.0000 0.0000
06:28 8.2 6.7 90 1001.3 0.0000 0.0000
06:38 8.3 6.6 89 1001.2 0.0000 0.0000
06:49 8.4 6.7 89 1001.3 0.0000 0.0000
06:58 8.4 6.7 89 1001.5 0.0000 0.0000
07:08 8.4 6.7 89 1001.5 0.0000 0.0000
07:19 8.4 6.7 89 1001.5 0.0000 0.0000
07:29 8.4 6.7 89 1001.7 0.0000 0.0000
09:04 9.3 7.6 89 1002.3 0.0000 0.0000
09:15 9.8 8.2 90 1002.1 0.0000 0.0000
09:25 9.9 8 88 1002.3 0.0000 0.0000
09:34 10 7.9 87 1002.3 0.0000 0.0000
09:45 10.2 8.1 87 1002.3 0.0000 0.0000
09:55 10.3 8.2 87 1002.4 0.0000 0.0000
10:05 10.3 8.1 86 1002.5 0.0000 0.0000
10:15 10.4 8.2 86 1002.7 0.0000 0.0000
10:25 10.5 8.3 86 1002.5 0.0000 0.0000
10:35 10.7 8.3 85 1002.6 0.0000 0.0000
10:45 10.8 8.2 84 1002.6 0.0000 0.0000
10:56 10.9 8.1 83 1002.8 0.0000 0.0000
11:05 10.9 8.1 83 1002.9 0.0000 0.0000
11:44 12 9 82 1002.9 0.0000 0.0000
11:55 12 8.7 80 1003 0.0000 0.0000
12:06 12.2 8.7 79 1002.7 0.0000 0.0000
12:16 12.2 8.5 78 1002.7 0.0000 0.0000
12:25 12.2 8.5 78 1002.6 0.0000 0.0000
12:30 12.1 8.6 79 1002.6 0.0000 0.0000
12:54 12.3 8.6 78 1002.6 0.0000 0.0000
13:04 12.1 8.4 78 1002.6 0.0000 0.0000
13:18 12 8.5 79 1002.6 0.0000 0.0000
13:28 12 8.5 79 1002.6 0.0000 0.0000
13:38 12 8.5 79 1002.5 0.0000 0.0000
13:48 12.1 8.6 79 1002.4 0.0000 0.0000
13:58 12 8.5 79 1002.3 0.0000 0.0000
14:08 12 8.5 79 1002.3 0.0000 0.0000
14:19 12 8.5 79 1002.3 0.0000 0.0000
14:28 12 8.5 79 1002.1 0.0000 0.0000
14:38 11.9 8.2 78 1002.1 0.0000 0.0000
14:48 11.9 8.2 78 1002.2 0.0000 0.0000
15:39 11.7 8.2 79 1001.8 0.0000 0.0000
15:49 11.6 8.1 79 1001.8 0.0000 0.0000
15:59 11.5 8.2 80 1001.7 0.0000 0.0000
16:09 11.5 8.2 80 1001.8 0.0000 0.0000
16:19 11.4 8.1 80 1001.7 0.0000 0.0000
16:29 11.6 8.6 82 1001.6 0.0000 0.0000
16:40 11.5 8.2 80 1001.7 0.0000 0.0000
16:50 11.4 8.1 80 1001.8 0.0000 0.0000
16:52 11.4 8.1 80 1001.7 0.0000 0.0000
17:12 11.1 8 81 1001.7 0.0000 0.0000
17:32 10.9 7.8 81 1001.5 0.0000 0.0000
17:42 10.9 7.8 81 1001.4 0.0000 0.0000
18:02 10.8 7.9 82 1001.5 0.0000 0.0000
18:12 10.8 7.9 82 1001.3 0.0000 0.0000
18:22 10.8 7.9 82 1001.3 0.0000 0.0000
18:32 10.8 7.9 82 1001.1 0.0000 0.0000
18:43 10.8 7.7 81 1001.1 0.0000 0.0000
18:52 10.8 7.7 81 1001 0.0000 0.0000
19:02 10.8 7.7 81 1000.9 0.0000 0.0000
19:13 10.8 7.7 81 1000.8 0.0000 0.0000
19:23 10.8 7.5 80 1000.8 0.0000 0.0000
19:33 10.8 7.3 79 1000.6 0.0000 0.0000
19:42 10.9 7.4 79 1000.5 0.0000 0.0000
19:53 10.9 7.4 79 1000.4 0.0000 0.0000
20:03 10.9 7.4 79 1000.4 0.0000 0.0000
20:13 10.9 7.2 78 1000.1 0.0000 0.0000
20:23 10.9 7.2 78 1000.2 0.0000 0.0000
20:33 11 7.3 78 1000.1 0.0000 0.0000
20:43 11 7.3 78 1000.1 0.0000 0.0000
20:53 11 7.3 78 1000.1 0.0000 0.0000
21:04 11 7.3 78 999.9 0.0000 0.0000
21:14 11 7.3 78 999.8 0.0000 0.0000
21:23 11 7.3 78 999.7 0.0000 0.0000
21:33 10.9 7.4 79 999.7 0.2020 0.2000
21:44 10.7 7.6 81 999.8 0.2020 0.2000
21:54 10.5 7.6 82 999.8 0.2020 0.2000
22:03 10.3 7.5 83 999.6 0.2020 0.2000
22:14 10.2 7.6 84 999.4 0.2020 0.2000
22:24 10.1 7.5 84 999.2 0.2020 0.2000
22:34 10.1 7.7 85 999.2 0.0000 0.2000
22:44 10.1 7.5 84 999.1 0.0000 0.2000
22:54 10.2 7.6 84 999 0.0000 0.2000
23:04 10.3 7.7 84 998.9 0.0000 0.2000
23:14 10.3 7.7 84 998.9 0.0000 0.2000
23:25 10.3 7.9 85 998.7 0.0000 0.2000
23:35 10.3 8.1 86 998.7 0.0000 0.2000
23:44 10.3 8.1 86 998.8 0.0000 0.2000

DAY STATISTIC

2020-10-27
TEMPERATURE
AVERAGE
10.1
HIGH
12.3
12:54
LOW
7.8
01:16
PRESSURE
AVERAGE
1001.0
HIGH
1003.0
11:55
LOW
998.7
23:25
DEWPOINT
AVERAGE
7.4
HIGH
9.0
11:44
LOW
5.8
01:16
HUMIDITY
AVERAGE
84
HIGH
90
06:28
LOW
78
12:16
PRECIPITATION
RAIN HOUR
0.2
RAIN DAY
0.2
TEMPERATURE (°C)
LOW
7.8
HIGH
12.3
AVERAGE
10.1
PRESSURE (hpa)
LOW
998.7
HIGH
1003.0
AVERAGE
1001.0
DEVICE